sensor_id;sensor_type;location;lat;lon;timestamp;temperature;humidity
9939;DHT22;5008;50.656;7.188;2022-12-07T05:01:39;5.60;99.90
9939;DHT22;5008;50.656;7.188;2022-12-07T05:04:06;5.60;99.90
9939;DHT22;5008;50.656;7.188;2022-12-07T05:06:34;5.60;99.90
9939;DHT22;5008;50.656;7.188;2022-12-07T05:09:02;5.70;99.90
9939;DHT22;5008;50.656;7.188;2022-12-07T05:11:29;5.70;99.90
9939;DHT22;5008;50.656;7.188;2022-12-07T05:14:06;5.70;99.90
9939;DHT22;5008;50.656;7.188;2022-12-07T05:16:34;5.80;99.90
9939;DHT22;5008;50.656;7.188;2022-12-07T05:19:02;5.70;99.90
9939;DHT22;5008;50.656;7.188;2022-12-07T05:21:29;5.70;99.90
9939;DHT22;5008;50.656;7.188;2022-12-07T05:27:02;5.60;99.90
9939;DHT22;5008;50.656;7.188;2022-12-07T05:29:31;5.60;99.90
9939;DHT22;5008;50.656;7.188;2022-12-07T05:31:58;5.60;99.90
9939;DHT22;5008;50.656;7.188;2022-12-07T05:34:26;5.60;99.90
9939;DHT22;5008;50.656;7.188;2022-12-07T05:36:53;5.60;99.90
9939;DHT22;5008;50.656;7.188;2022-12-07T05:39:20;5.60;99.90
9939;DHT22;5008;50.656;7.188;2022-12-07T05:41:47;5.50;99.90
9939;DHT22;5008;50.656;7.188;2022-12-07T05:44:31;5.50;99.90
9939;DHT22;5008;50.656;7.188;2022-12-07T05:46:58;5.50;99.90
9939;DHT22;5008;50.656;7.188;2022-12-07T05:49:26;5.50;99.90
9939;DHT22;5008;50.656;7.188;2022-12-07T05:51:55;5.50;99.90
9939;DHT22;5008;50.656;7.188;2022-12-07T05:54:22;5.50;99.90
9939;DHT22;5008;50.656;7.188;2022-12-07T05:56:49;5.50;99.90
9939;DHT22;5008;50.656;7.188;2022-12-07T05:59:16;5.50;99.90
9939;DHT22;5008;50.656;7.188;2022-12-07T06:01:48;5.50;99.90
9939;DHT22;5008;50.656;7.188;2022-12-07T06:04:14;5.50;99.90
9939;DHT22;5008;50.656;7.188;2022-12-07T06:06:43;5.50;99.90
9939;DHT22;5008;50.656;7.188;2022-12-07T06:09:10;5.60;99.90
9939;DHT22;5008;50.656;7.188;2022-12-07T06:11:37;5.50;99.90
9939;DHT22;5008;50.656;7.188;2022-12-07T06:14:21;5.50;99.90
9939;DHT22;5008;50.656;7.188;2022-12-07T06:16:50;5.60;99.90
9939;DHT22;5008;50.656;7.188;2022-12-07T06:19:18;5.60;99.90
9939;DHT22;5008;50.656;7.188;2022-12-07T06:21:46;5.60;99.90
9939;DHT22;5008;50.656;7.188;2022-12-07T06:24:32;5.60;99.90
9939;DHT22;5008;50.656;7.188;2022-12-07T06:26:59;5.60;99.90
9939;DHT22;5008;50.656;7.188;2022-12-07T06:29:42;5.60;99.90
9939;DHT22;5008;50.656;7.188;2022-12-07T06:32:14;5.70;99.90
9939;DHT22;5008;50.656;7.188;2022-12-07T06:38:02;5.70;99.90
9939;DHT22;5008;50.656;7.188;2022-12-07T06:40:36;5.70;99.90
9939;DHT22;5008;50.656;7.188;2022-12-07T06:43:03;5.60;99.90
9939;DHT22;5008;50.656;7.188;2022-12-07T06:45:29;5.60;99.90
9939;DHT22;5008;50.656;7.188;2022-12-07T06:47:59;5.70;99.90
9939;DHT22;5008;50.656;7.188;2022-12-07T06:50:28;5.80;99.90
9939;DHT22;5008;50.656;7.188;2022-12-07T06:53:12;5.80;99.90
9939;DHT22;5008;50.656;7.188;2022-12-07T06:55:47;5.80;99.90
9939;DHT22;5008;50.656;7.188;2022-12-07T06:58:20;5.80;99.90
9939;DHT22;5008;50.656;7.188;2022-12-07T07:00:50;5.70;99.90
9939;DHT22;5008;50.656;7.188;2022-12-07T07:03:44;5.60;99.90
9939;DHT22;5008;50.656;7.188;2022-12-07T07:06:17;5.50;99.90
9939;DHT22;5008;50.656;7.188;2022-12-07T07:08:57;5.50;99.90
9939;DHT22;5008;50.656;7.188;2022-12-07T07:11:24;5.40;99.90
9939;DHT22;5008;50.656;7.188;2022-12-07T07:13:50;5.40;99.90
9939;DHT22;5008;50.656;7.188;2022-12-07T07:16:17;5.40;99.90
9939;DHT22;5008;50.656;7.188;2022-12-07T07:18:44;5.40;99.90
9939;DHT22;5008;50.656;7.188;2022-12-07T07:21:14;5.40;99.90
9939;DHT22;5008;50.656;7.188;2022-12-07T07:23:41;5.40;99.90
9939;DHT22;5008;50.656;7.188;2022-12-07T07:26:09;5.30;99.90
9939;DHT22;5008;50.656;7.188;2022-12-07T07:28:36;5.30;99.90
9939;DHT22;5008;50.656;7.188;2022-12-07T07:31:03;5.30;99.90
9939;DHT22;5008;50.656;7.188;2022-12-07T07:33:30;5.30;99.90
9939;DHT22;5008;50.656;7.188;2022-12-07T07:35:57;5.30;99.90
9939;DHT22;5008;50.656;7.188;2022-12-07T07:38:23;5.30;99.90
9939;DHT22;5008;50.656;7.188;2022-12-07T07:40:50;5.30;99.90
9939;DHT22;5008;50.656;7.188;2022-12-07T07:43:18;5.30;99.90
9939;DHT22;5008;50.656;7.188;2022-12-07T07:45:45;5.40;99.90
9939;DHT22;5008;50.656;7.188;2022-12-07T07:48:12;5.30;99.90
9939;DHT22;5008;50.656;7.188;2022-12-07T07:50:39;5.40;99.90
9939;DHT22;5008;50.656;7.188;2022-12-07T07:53:06;5.40;99.90
9939;DHT22;5008;50.656;7.188;2022-12-07T07:55:33;5.50;99.90
9939;DHT22;5008;50.656;7.188;2022-12-07T07:58:00;5.50;99.90
9939;DHT22;5008;50.656;7.188;2022-12-07T08:00:28;5.50;99.90
9939;DHT22;5008;50.656;7.188;2022-12-07T08:02:55;5.50;99.90
9939;DHT22;5008;50.656;7.188;2022-12-07T08:05:22;5.50;99.90
9939;DHT22;5008;50.656;7.188;2022-12-07T08:07:49;5.40;99.90
9939;DHT22;5008;50.656;7.188;2022-12-07T08:10:16;5.50;99.90
9939;DHT22;5008;50.656;7.188;2022-12-07T08:12:43;5.50;99.90
9939;DHT22;5008;50.656;7.188;2022-12-07T08:15:30;5.50;99.90
9939;DHT22;5008;50.656;7.188;2022-12-07T08:17:57;5.50;99.90
9939;DHT22;5008;50.656;7.188;2022-12-07T08:20:24;5.50;99.90
9939;DHT22;5008;50.656;7.188;2022-12-07T08:22:54;5.50;99.90
9939;DHT22;5008;50.656;7.188;2022-12-07T08:25:20;5.50;99.90
9939;DHT22;5008;50.656;7.188;2022-12-07T08:27:47;5.50;99.90
9939;DHT22;5008;50.656;7.188;2022-12-07T08:30:15;5.60;99.90
9939;DHT22;5008;50.656;7.188;2022-12-07T08:32:44;5.60;99.90
9939;DHT22;5008;50.656;7.188;2022-12-07T08:35:11;5.60;99.90
9939;DHT22;5008;50.656;7.188;2022-12-07T08:37:43;5.70;99.90
9939;DHT22;5008;50.656;7.188;2022-12-07T08:40:12;5.80;99.90
9939;DHT22;5008;50.656;7.188;2022-12-07T08:42:48;5.70;99.90
9939;DHT22;5008;50.656;7.188;2022-12-07T08:45:16;5.70;99.90
9939;DHT22;5008;50.656;7.188;2022-12-07T08:47:47;5.60;99.90
9939;DHT22;5008;50.656;7.188;2022-12-07T08:50:15;5.70;99.90
9939;DHT22;5008;50.656;7.188;2022-12-07T08:52:43;5.70;99.90
9939;DHT22;5008;50.656;7.188;2022-12-07T08:55:11;5.70;99.90
9939;DHT22;5008;50.656;7.188;2022-12-07T08:57:42;5.80;99.90
9939;DHT22;5008;50.656;7.188;2022-12-07T09:00:10;5.80;99.90
9939;DHT22;5008;50.656;7.188;2022-12-07T09:02:40;5.90;99.90
9939;DHT22;5008;50.656;7.188;2022-12-07T09:05:09;5.90;99.90
9939;DHT22;5008;50.656;7.188;2022-12-07T09:07:37;6.00;99.90
9939;DHT22;5008;50.656;7.188;2022-12-07T09:10:05;6.00;99.90
9939;DHT22;5008;50.656;7.188;2022-12-07T09:12:32;6.00;99.90
9939;DHT22;5008;50.656;7.188;2022-12-07T09:15:02;6.10;99.90
9939;DHT22;5008;50.656;7.188;2022-12-07T09:17:32;6.10;99.90
9939;DHT22;5008;50.656;7.188;2022-12-07T09:19:59;6.20;99.90
9939;DHT22;5008;50.656;7.188;2022-12-07T09:22:31;6.20;99.90
9939;DHT22;5008;50.656;7.188;2022-12-07T09:24:58;6.30;99.90
9939;DHT22;5008;50.656;7.188;2022-12-07T09:27:28;6.20;99.90
9939;DHT22;5008;50.656;7.188;2022-12-07T09:29:55;6.20;99.90
9939;DHT22;5008;50.656;7.188;2022-12-07T09:32:22;6.20;99.90
9939;DHT22;5008;50.656;7.188;2022-12-07T09:34:49;6.30;99.90
9939;DHT22;5008;50.656;7.188;2022-12-07T09:37:16;6.20;99.90
9939;DHT22;5008;50.656;7.188;2022-12-07T09:39:54;6.40;99.90
9939;DHT22;5008;50.656;7.188;2022-12-07T09:42:27;6.40;99.90
9939;DHT22;5008;50.656;7.188;2022-12-07T09:44:55;6.50;99.90
9939;DHT22;5008;50.656;7.188;2022-12-07T09:47:23;6.70;99.90
9939;DHT22;5008;50.656;7.188;2022-12-07T09:49:51;6.70;99.90
9939;DHT22;5008;50.656;7.188;2022-12-07T09:52:19;6.80;99.90
9939;DHT22;5008;50.656;7.188;2022-12-07T09:54:49;6.80;99.90
9939;DHT22;5008;50.656;7.188;2022-12-07T09:57:29;6.70;99.90
9939;DHT22;5008;50.656;7.188;2022-12-07T09:59:58;6.70;99.90
9939;DHT22;5008;50.656;7.188;2022-12-07T10:02:35;6.80;99.90
9939;DHT22;5008;50.656;7.188;2022-12-07T10:05:04;6.70;99.90
9939;DHT22;5008;50.656;7.188;2022-12-07T10:07:31;6.70;99.90
9939;DHT22;5008;50.656;7.188;2022-12-07T10:09:58;6.80;99.90
9939;DHT22;5008;50.656;7.188;2022-12-07T10:12:30;6.80;99.90
9939;DHT22;5008;50.656;7.188;2022-12-07T10:15:00;6.80;99.90
9939;DHT22;5008;50.656;7.188;2022-12-07T10:17:36;6.80;99.90
9939;DHT22;5008;50.656;7.188;2022-12-07T10:20:21;6.90;99.90
9939;DHT22;5008;50.656;7.188;2022-12-07T10:23:13;7.00;99.90
9939;DHT22;5008;50.656;7.188;2022-12-07T10:25:40;7.00;99.90
9939;DHT22;5008;50.656;7.188;2022-12-07T10:28:15;7.00;99.90
9939;DHT22;5008;50.656;7.188;2022-12-07T10:30:52;7.00;99.90
9939;DHT22;5008;50.656;7.188;2022-12-07T10:33:34;7.00;99.90
9939;DHT22;5008;50.656;7.188;2022-12-07T10:36:21;7.10;99.90
9939;DHT22;5008;50.656;7.188;2022-12-07T10:38:51;7.10;99.90
9939;DHT22;5008;50.656;7.188;2022-12-07T10:41:18;7.20;99.90
9939;DHT22;5008;50.656;7.188;2022-12-07T10:43:52;7.20;99.90
9939;DHT22;5008;50.656;7.188;2022-12-07T10:46:48;7.30;99.90
9939;DHT22;5008;50.656;7.188;2022-12-07T10:52:44;7.30;99.90
9939;DHT22;5008;50.656;7.188;2022-12-07T10:55:20;7.30;99.90
9939;DHT22;5008;50.656;7.188;2022-12-07T11:01:19;7.40;99.90
9939;DHT22;5008;50.656;7.188;2022-12-07T11:04:14;7.50;99.90
9939;DHT22;5008;50.656;7.188;2022-12-07T11:06:48;7.50;99.90
9939;DHT22;5008;50.656;7.188;2022-12-07T11:12:25;7.60;99.90
9939;DHT22;5008;50.656;7.188;2022-12-07T11:14:57;7.70;99.90
9939;DHT22;5008;50.656;7.188;2022-12-07T11:17:32;7.60;99.90
9939;DHT22;5008;50.656;7.188;2022-12-07T11:20:12;7.60;99.90
9939;DHT22;5008;50.656;7.188;2022-12-07T11:22:48;7.90;99.90
9939;DHT22;5008;50.656;7.188;2022-12-07T11:25:24;7.90;99.90
9939;DHT22;5008;50.656;7.188;2022-12-07T11:28:08;7.90;99.90
9939;DHT22;5008;50.656;7.188;2022-12-07T11:30:40;8.00;99.90
9939;DHT22;5008;50.656;7.188;2022-12-07T11:33:19;8.10;99.90
9939;DHT22;5008;50.656;7.188;2022-12-07T11:35:56;8.30;99.90
9939;DHT22;5008;50.656;7.188;2022-12-07T11:38:37;8.60;99.90
9939;DHT22;5008;50.656;7.188;2022-12-07T11:41:09;8.50;99.90
9939;DHT22;5008;50.656;7.188;2022-12-07T11:43:54;8.30;99.90
9939;DHT22;5008;50.656;7.188;2022-12-07T11:46:27;8.20;99.90
9939;DHT22;5008;50.656;7.188;2022-12-07T11:49:02;8.00;99.90
9939;DHT22;5008;50.656;7.188;2022-12-07T11:51:33;8.20;99.90
9939;DHT22;5008;50.656;7.188;2022-12-07T11:54:04;8.20;99.90
9939;DHT22;5008;50.656;7.188;2022-12-07T11:56:49;8.10;99.90
9939;DHT22;5008;50.656;7.188;2022-12-07T11:59:29;7.90;99.90
9939;DHT22;5008;50.656;7.188;2022-12-07T12:02:03;7.80;99.90
9939;DHT22;5008;50.656;7.188;2022-12-07T12:04:46;8.00;99.90
9939;DHT22;5008;50.656;7.188;2022-12-07T12:07:17;8.10;99.90
9939;DHT22;5008;50.656;7.188;2022-12-07T12:09:48;8.30;99.90
9939;DHT22;5008;50.656;7.188;2022-12-07T12:15:51;8.70;99.90
9939;DHT22;5008;50.656;7.188;2022-12-07T12:18:42;9.00;99.90
9939;DHT22;5008;50.656;7.188;2022-12-07T12:21:16;9.80;99.90
9939;DHT22;5008;50.656;7.188;2022-12-07T12:23:45;10.70;99.90
9939;DHT22;5008;50.656;7.188;2022-12-07T12:26:17;11.50;99.90
9939;DHT22;5008;50.656;7.188;2022-12-07T12:28:52;11.10;99.90
9939;DHT22;5008;50.656;7.188;2022-12-07T12:31:32;11.10;99.90
9939;DHT22;5008;50.656;7.188;2022-12-07T12:34:02;11.80;99.90
9939;DHT22;5008;50.656;7.188;2022-12-07T12:36:45;11.70;99.90
9939;DHT22;5008;50.656;7.188;2022-12-07T12:39:13;11.30;99.90
9939;DHT22;5008;50.656;7.188;2022-12-07T12:42:01;11.60;99.90
9939;DHT22;5008;50.656;7.188;2022-12-07T12:47:59;10.60;99.90
9939;DHT22;5008;50.656;7.188;2022-12-07T12:50:30;9.80;99.90
9939;DHT22;5008;50.656;7.188;2022-12-07T12:53:14;9.30;99.90
9939;DHT22;5008;50.656;7.188;2022-12-07T12:58:43;8.60;99.90
9939;DHT22;5008;50.656;7.188;2022-12-07T13:01:39;8.30;99.90
9939;DHT22;5008;50.656;7.188;2022-12-07T13:04:38;8.10;99.90
9939;DHT22;5008;50.656;7.188;2022-12-07T13:10:22;7.80;99.90
9939;DHT22;5008;50.656;7.188;2022-12-07T13:12:56;7.80;99.90
9939;DHT22;5008;50.656;7.188;2022-12-07T13:15:34;7.80;99.90
9939;DHT22;5008;50.656;7.188;2022-12-07T13:18:04;7.70;99.90
9939;DHT22;5008;50.656;7.188;2022-12-07T13:20:50;7.70;99.90
9939;DHT22;5008;50.656;7.188;2022-12-07T13:23:30;7.60;99.90
9939;DHT22;5008;50.656;7.188;2022-12-07T13:26:17;7.40;99.90
9939;DHT22;5008;50.656;7.188;2022-12-07T13:28:45;7.40;99.90
9939;DHT22;5008;50.656;7.188;2022-12-07T13:31:34;7.40;99.90
9939;DHT22;5008;50.656;7.188;2022-12-07T13:34:01;7.40;99.90
9939;DHT22;5008;50.656;7.188;2022-12-07T13:36:34;7.30;99.90
9939;DHT22;5008;50.656;7.188;2022-12-07T13:39:18;7.40;99.90
9939;DHT22;5008;50.656;7.188;2022-12-07T13:41:53;7.40;99.90
9939;DHT22;5008;50.656;7.188;2022-12-07T13:44:23;7.30;99.90
9939;DHT22;5008;50.656;7.188;2022-12-07T13:46:59;7.00;99.90
9939;DHT22;5008;50.656;7.188;2022-12-07T13:49:28;6.80;99.90
9939;DHT22;5008;50.656;7.188;2022-12-07T13:52:13;6.80;99.90
9939;DHT22;5008;50.656;7.188;2022-12-07T13:54:44;6.80;99.90
9939;DHT22;5008;50.656;7.188;2022-12-07T13:57:13;7.00;99.90
9939;DHT22;5008;50.656;7.188;2022-12-07T13:59:40;7.00;99.90
9939;DHT22;5008;50.656;7.188;2022-12-07T14:02:18;7.00;99.90
9939;DHT22;5008;50.656;7.188;2022-12-07T14:04:45;7.00;99.90
9939;DHT22;5008;50.656;7.188;2022-12-07T14:07:21;7.10;99.90
9939;DHT22;5008;50.656;7.188;2022-12-07T14:09:59;7.10;99.90
9939;DHT22;5008;50.656;7.188;2022-12-07T14:12:29;6.90;99.90
9939;DHT22;5008;50.656;7.188;2022-12-07T14:15:01;6.90;99.90
9939;DHT22;5008;50.656;7.188;2022-12-07T14:17:28;6.90;99.90
9939;DHT22;5008;50.656;7.188;2022-12-07T14:19:56;6.90;99.90
9939;DHT22;5008;50.656;7.188;2022-12-07T14:22:28;6.80;99.90
9939;DHT22;5008;50.656;7.188;2022-12-07T14:25:28;6.70;99.90
9939;DHT22;5008;50.656;7.188;2022-12-07T14:27:58;6.60;99.90
9939;DHT22;5008;50.656;7.188;2022-12-07T14:30:27;6.60;99.90
9939;DHT22;5008;50.656;7.188;2022-12-07T14:32:59;6.60;99.90
9939;DHT22;5008;50.656;7.188;2022-12-07T14:35:26;6.60;99.90
9939;DHT22;5008;50.656;7.188;2022-12-07T14:37:53;6.60;99.90
9939;DHT22;5008;50.656;7.188;2022-12-07T14:40:22;6.50;99.90
9939;DHT22;5008;50.656;7.188;2022-12-07T14:42:51;6.60;99.90
9939;DHT22;5008;50.656;7.188;2022-12-07T14:45:22;6.60;99.90
9939;DHT22;5008;50.656;7.188;2022-12-07T14:47:49;6.50;99.90
9939;DHT22;5008;50.656;7.188;2022-12-07T14:50:23;6.50;99.90
9939;DHT22;5008;50.656;7.188;2022-12-07T14:52:54;6.50;99.90
9939;DHT22;5008;50.656;7.188;2022-12-07T14:55:24;6.30;99.90
9939;DHT22;5008;50.656;7.188;2022-12-07T14:57:52;6.20;99.90
9939;DHT22;5008;50.656;7.188;2022-12-07T15:00:22;6.20;99.90
9939;DHT22;5008;50.656;7.188;2022-12-07T15:02:50;6.20;99.90
9939;DHT22;5008;50.656;7.188;2022-12-07T15:05:19;6.10;99.90
9939;DHT22;5008;50.656;7.188;2022-12-07T15:07:57;6.00;99.90
9939;DHT22;5008;50.656;7.188;2022-12-07T15:10:30;6.00;99.90
9939;DHT22;5008;50.656;7.188;2022-12-07T15:13:20;5.90;99.90
9939;DHT22;5008;50.656;7.188;2022-12-07T15:16:10;5.90;99.90
9939;DHT22;5008;50.656;7.188;2022-12-07T15:18:51;5.80;99.90
9939;DHT22;5008;50.656;7.188;2022-12-07T15:21:18;5.80;99.90
9939;DHT22;5008;50.656;7.188;2022-12-07T15:23:46;5.70;99.90
9939;DHT22;5008;50.656;7.188;2022-12-07T15:26:13;5.70;99.90
9939;DHT22;5008;50.656;7.188;2022-12-07T15:28:40;5.60;99.90
9939;DHT22;5008;50.656;7.188;2022-12-07T15:31:12;5.60;99.90
9939;DHT22;5008;50.656;7.188;2022-12-07T15:33:39;5.70;99.90
9939;DHT22;5008;50.656;7.188;2022-12-07T15:36:06;5.70;99.90
9939;DHT22;5008;50.656;7.188;2022-12-07T15:38:35;5.70;99.90
9939;DHT22;5008;50.656;7.188;2022-12-07T15:41:09;5.70;99.90
9939;DHT22;5008;50.656;7.188;2022-12-07T15:43:36;5.70;99.90
9939;DHT22;5008;50.656;7.188;2022-12-07T15:46:22;5.60;99.90
9939;DHT22;5008;50.656;7.188;2022-12-07T15:48:49;5.70;99.90
9939;DHT22;5008;50.656;7.188;2022-12-07T15:51:16;5.70;99.90
9939;DHT22;5008;50.656;7.188;2022-12-07T15:53:43;5.60;99.90
9939;DHT22;5008;50.656;7.188;2022-12-07T15:56:13;5.70;99.90
9939;DHT22;5008;50.656;7.188;2022-12-07T15:58:41;5.60;99.90
9939;DHT22;5008;50.656;7.188;2022-12-07T16:01:12;5.60;99.90
9939;DHT22;5008;50.656;7.188;2022-12-07T16:03:40;5.50;99.90
9939;DHT22;5008;50.656;7.188;2022-12-07T16:06:08;5.50;99.90
9939;DHT22;5008;50.656;7.188;2022-12-07T16:08:35;5.50;99.90
9939;DHT22;5008;50.656;7.188;2022-12-07T16:11:05;5.60;99.90
9939;DHT22;5008;50.656;7.188;2022-12-07T16:13:37;5.60;99.90
9939;DHT22;5008;50.656;7.188;2022-12-07T16:16:10;5.70;99.90
9939;DHT22;5008;50.656;7.188;2022-12-07T16:19:03;5.70;99.90
9939;DHT22;5008;50.656;7.188;2022-12-07T16:21:37;5.70;99.90
9939;DHT22;5008;50.656;7.188;2022-12-07T16:24:22;5.70;99.90
9939;DHT22;5008;50.656;7.188;2022-12-07T16:26:52;5.70;99.90
9939;DHT22;5008;50.656;7.188;2022-12-07T16:29:21;5.70;99.90
9939;DHT22;5008;50.656;7.188;2022-12-07T16:31:55;5.70;99.90
9939;DHT22;5008;50.656;7.188;2022-12-07T16:34:24;5.60;99.90
9939;DHT22;5008;50.656;7.188;2022-12-07T16:36:51;5.60;99.90
9939;DHT22;5008;50.656;7.188;2022-12-07T16:39:21;5.60;99.90
9939;DHT22;5008;50.656;7.188;2022-12-07T16:41:48;5.60;99.90
9939;DHT22;5008;50.656;7.188;2022-12-07T16:44:14;5.50;99.90
9939;DHT22;5008;50.656;7.188;2022-12-07T16:46:42;5.50;99.90
9939;DHT22;5008;50.656;7.188;2022-12-07T16:49:13;5.50;99.90
9939;DHT22;5008;50.656;7.188;2022-12-07T16:51:49;5.50;99.90
9939;DHT22;5008;50.656;7.188;2022-12-07T16:54:16;5.50;99.90
9939;DHT22;5008;50.656;7.188;2022-12-07T16:56:44;5.40;99.90
9939;DHT22;5008;50.656;7.188;2022-12-07T16:59:11;5.40;99.90
9939;DHT22;5008;50.656;7.188;2022-12-07T17:01:40;5.40;99.90
9939;DHT22;5008;50.656;7.188;2022-12-07T17:04:13;5.40;99.90
9939;DHT22;5008;50.656;7.188;2022-12-07T17:06:41;5.30;99.90
9939;DHT22;5008;50.656;7.188;2022-12-07T17:09:13;5.30;99.90
9939;DHT22;5008;50.656;7.188;2022-12-07T17:11:44;5.40;99.90
9939;DHT22;5008;50.656;7.188;2022-12-07T17:14:11;5.30;99.90
9939;DHT22;5008;50.656;7.188;2022-12-07T17:16:57;5.30;99.90
9939;DHT22;5008;50.656;7.188;2022-12-07T17:19:29;5.40;99.90
9939;DHT22;5008;50.656;7.188;2022-12-07T17:22:02;5.40;99.90
9939;DHT22;5008;50.656;7.188;2022-12-07T17:24:41;5.40;99.90
9939;DHT22;5008;50.656;7.188;2022-12-07T17:27:08;5.40;99.90
9939;DHT22;5008;50.656;7.188;2022-12-07T17:29:35;5.50;99.90
9939;DHT22;5008;50.656;7.188;2022-12-07T17:32:02;5.50;99.90
9939;DHT22;5008;50.656;7.188;2022-12-07T17:34:29;5.50;99.90
9939;DHT22;5008;50.656;7.188;2022-12-07T17:36:55;5.40;99.90
9939;DHT22;5008;50.656;7.188;2022-12-07T17:39:22;5.40;99.90
9939;DHT22;5008;50.656;7.188;2022-12-07T17:41:51;5.50;99.90
9939;DHT22;5008;50.656;7.188;2022-12-07T17:44:35;5.50;99.90
9939;DHT22;5008;50.656;7.188;2022-12-07T17:47:02;5.60;99.90
9939;DHT22;5008;50.656;7.188;2022-12-07T17:49:31;5.60;99.90
9939;DHT22;5008;50.656;7.188;2022-12-07T17:51:57;5.60;99.90
9939;DHT22;5008;50.656;7.188;2022-12-07T17:54:42;5.60;99.90
9939;DHT22;5008;50.656;7.188;2022-12-07T17:57:10;5.70;99.90
9939;DHT22;5008;50.656;7.188;2022-12-07T17:59:37;5.70;99.90
9939;DHT22;5008;50.656;7.188;2022-12-07T18:02:05;5.60;99.90
9939;DHT22;5008;50.656;7.188;2022-12-07T18:04:33;5.50;99.90
9939;DHT22;5008;50.656;7.188;2022-12-07T18:07:01;5.50;99.90
9939;DHT22;5008;50.656;7.188;2022-12-07T18:09:30;5.50;99.90
9939;DHT22;5008;50.656;7.188;2022-12-07T18:11:57;5.50;99.90
9939;DHT22;5008;50.656;7.188;2022-12-07T18:14:25;5.40;99.90
9939;DHT22;5008;50.656;7.188;2022-12-07T18:16:52;5.40;99.90
9939;DHT22;5008;50.656;7.188;2022-12-07T18:19:19;5.40;99.90
9939;DHT22;5008;50.656;7.188;2022-12-07T18:21:46;5.40;99.90
9939;DHT22;5008;50.656;7.188;2022-12-07T18:24:15;5.40;99.90
9939;DHT22;5008;50.656;7.188;2022-12-07T18:26:43;5.30;99.90
9939;DHT22;5008;50.656;7.188;2022-12-07T18:29:14;5.30;99.90
9939;DHT22;5008;50.656;7.188;2022-12-07T18:31:44;5.30;99.90
9939;DHT22;5008;50.656;7.188;2022-12-07T18:34:13;5.40;99.90
9939;DHT22;5008;50.656;7.188;2022-12-07T18:36:42;5.30;99.90
9939;DHT22;5008;50.656;7.188;2022-12-07T18:39:11;5.30;99.90
9939;DHT22;5008;50.656;7.188;2022-12-07T18:41:38;5.30;99.90
9939;DHT22;5008;50.656;7.188;2022-12-07T18:44:07;5.30;99.90
9939;DHT22;5008;50.656;7.188;2022-12-07T18:46:35;5.30;99.90
9939;DHT22;5008;50.656;7.188;2022-12-07T18:49:04;5.30;99.90
9939;DHT22;5008;50.656;7.188;2022-12-07T18:51:30;5.30;99.90
9939;DHT22;5008;50.656;7.188;2022-12-07T18:53:57;5.30;99.90
9939;DHT22;5008;50.656;7.188;2022-12-07T18:56:25;5.30;99.90
9939;DHT22;5008;50.656;7.188;2022-12-07T18:58:54;5.30;99.90
9939;DHT22;5008;50.656;7.188;2022-12-07T19:01:38;5.30;99.90
9939;DHT22;5008;50.656;7.188;2022-12-07T19:04:07;5.30;99.90
9939;DHT22;5008;50.656;7.188;2022-12-07T19:06:34;5.30;99.90
9939;DHT22;5008;50.656;7.188;2022-12-07T19:09:02;5.40;99.90
9939;DHT22;5008;50.656;7.188;2022-12-07T19:11:31;5.30;99.90
9939;DHT22;5008;50.656;7.188;2022-12-07T19:14:19;5.30;99.90
9939;DHT22;5008;50.656;7.188;2022-12-07T19:16:47;5.40;99.90
9939;DHT22;5008;50.656;7.188;2022-12-07T19:19:18;5.30;99.90
9939;DHT22;5008;50.656;7.188;2022-12-07T19:21:45;5.30;99.90
9939;DHT22;5008;50.656;7.188;2022-12-07T19:24:12;5.30;99.90
9939;DHT22;5008;50.656;7.188;2022-12-07T19:26:39;5.30;99.90
9939;DHT22;5008;50.656;7.188;2022-12-07T19:29:07;5.30;99.90
9939;DHT22;5008;50.656;7.188;2022-12-07T19:31:35;5.30;99.90
9939;DHT22;5008;50.656;7.188;2022-12-07T19:34:06;5.30;99.90
9939;DHT22;5008;50.656;7.188;2022-12-07T19:36:34;5.30;99.90
9939;DHT22;5008;50.656;7.188;2022-12-07T19:39:01;5.30;99.90
9939;DHT22;5008;50.656;7.188;2022-12-07T19:41:35;5.30;99.90
9939;DHT22;5008;50.656;7.188;2022-12-07T19:44:06;5.30;99.90
9939;DHT22;5008;50.656;7.188;2022-12-07T19:46:33;5.20;99.90
9939;DHT22;5008;50.656;7.188;2022-12-07T19:49:01;5.20;99.90
9939;DHT22;5008;50.656;7.188;2022-12-07T19:51:29;5.20;99.90
9939;DHT22;5008;50.656;7.188;2022-12-07T19:53:58;5.20;99.90
9939;DHT22;5008;50.656;7.188;2022-12-07T19:56:27;5.20;99.90
9939;DHT22;5008;50.656;7.188;2022-12-07T19:58:55;5.10;99.90
9939;DHT22;5008;50.656;7.188;2022-12-07T20:01:22;5.10;99.90
9939;DHT22;5008;50.656;7.188;2022-12-07T20:03:49;5.10;99.90
9939;DHT22;5008;50.656;7.188;2022-12-07T20:06:17;5.10;99.90
9939;DHT22;5008;50.656;7.188;2022-12-07T20:08:45;5.10;99.90
9939;DHT22;5008;50.656;7.188;2022-12-07T20:11:16;5.20;99.90
9939;DHT22;5008;50.656;7.188;2022-12-07T20:14:00;5.10;99.90
9939;DHT22;5008;50.656;7.188;2022-12-07T20:16:27;5.00;99.90
9939;DHT22;5008;50.656;7.188;2022-12-07T20:18:54;5.10;99.90
9939;DHT22;5008;50.656;7.188;2022-12-07T20:21:21;5.00;99.90
9939;DHT22;5008;50.656;7.188;2022-12-07T20:23:48;5.00;99.90
9939;DHT22;5008;50.656;7.188;2022-12-07T20:26:16;5.00;99.90
9939;DHT22;5008;50.656;7.188;2022-12-07T20:28:43;4.90;99.90
9939;DHT22;5008;50.656;7.188;2022-12-07T20:31:12;4.80;99.90
9939;DHT22;5008;50.656;7.188;2022-12-07T20:33:39;4.80;99.90
9939;DHT22;5008;50.656;7.188;2022-12-07T20:36:07;4.80;99.90
9939;DHT22;5008;50.656;7.188;2022-12-07T20:38:34;4.70;99.90
9939;DHT22;5008;50.656;7.188;2022-12-07T20:41:03;4.70;99.90
9939;DHT22;5008;50.656;7.188;2022-12-07T20:43:32;4.80;99.90
9939;DHT22;5008;50.656;7.188;2022-12-07T20:45:58;4.70;99.90
9939;DHT22;5008;50.656;7.188;2022-12-07T20:48:26;4.70;99.90
9939;DHT22;5008;50.656;7.188;2022-12-07T20:51:03;4.70;99.90
9939;DHT22;5008;50.656;7.188;2022-12-07T20:53:30;4.70;99.90
9939;DHT22;5008;50.656;7.188;2022-12-07T20:55:57;4.70;99.90
9939;DHT22;5008;50.656;7.188;2022-12-07T20:58:24;4.70;99.90
9939;DHT22;5008;50.656;7.188;2022-12-07T21:00:59;4.70;99.90
9939;DHT22;5008;50.656;7.188;2022-12-07T21:03:32;4.70;99.90
9939;DHT22;5008;50.656;7.188;2022-12-07T21:06:00;4.70;99.90
9939;DHT22;5008;50.656;7.188;2022-12-07T21:08:27;4.70;99.90
9939;DHT22;5008;50.656;7.188;2022-12-07T21:10:54;4.70;99.90
9939;DHT22;5008;50.656;7.188;2022-12-07T21:13:21;4.70;99.90
9939;DHT22;5008;50.656;7.188;2022-12-07T21:15:48;4.80;99.90
9939;DHT22;5008;50.656;7.188;2022-12-07T21:18:17;4.70;99.90
9939;DHT22;5008;50.656;7.188;2022-12-07T21:20:44;4.80;99.90
9939;DHT22;5008;50.656;7.188;2022-12-07T21:23:10;4.80;99.90
9939;DHT22;5008;50.656;7.188;2022-12-07T21:25:37;4.80;99.90
9939;DHT22;5008;50.656;7.188;2022-12-07T21:28:04;4.80;99.90
9939;DHT22;5008;50.656;7.188;2022-12-07T21:30:31;4.70;99.90
9939;DHT22;5008;50.656;7.188;2022-12-07T21:32:58;4.70;99.90
9939;DHT22;5008;50.656;7.188;2022-12-07T21:35:26;4.70;99.90
9939;DHT22;5008;50.656;7.188;2022-12-07T21:37:53;4.70;99.90
9939;DHT22;5008;50.656;7.188;2022-12-07T21:40:20;4.60;99.90
9939;DHT22;5008;50.656;7.188;2022-12-07T21:42:47;4.70;99.90
9939;DHT22;5008;50.656;7.188;2022-12-07T21:45:14;4.60;99.90
9939;DHT22;5008;50.656;7.188;2022-12-07T21:47:41;4.70;99.90
9939;DHT22;5008;50.656;7.188;2022-12-07T21:50:09;4.70;99.90
9939;DHT22;5008;50.656;7.188;2022-12-07T21:52:38;4.60;99.90
9939;DHT22;5008;50.656;7.188;2022-12-07T21:55:05;4.60;99.90
9939;DHT22;5008;50.656;7.188;2022-12-07T21:57:32;4.60;99.90
9939;DHT22;5008;50.656;7.188;2022-12-07T21:59:59;4.60;99.90
